sensor_id;sensor_type;location;lat;lon;timestamp;pressure;altitude;pressure_sealevel;temperature;humidity
74524;BME280;63004;44.694;10.422;2022-08-21T00:02:18;100031.56;;;23.75;97.24
74524;BME280;63004;44.694;10.422;2022-08-21T00:04:44;100038.97;;;23.74;97.04
74524;BME280;63004;44.694;10.422;2022-08-21T00:07:09;100041.72;;;23.74;97.39
74524;BME280;63004;44.694;10.422;2022-08-21T00:09:35;100042.53;;;23.75;97.43
74524;BME280;63004;44.694;10.422;2022-08-21T00:12:01;100050.75;;;23.75;97.41
74524;BME280;63004;44.694;10.422;2022-08-21T00:14:26;100048.81;;;23.75;97.49
74524;BME280;63004;44.694;10.422;2022-08-21T00:16:52;100051.56;;;23.75;97.41
74524;BME280;63004;44.694;10.422;2022-08-21T00:19:17;100054.78;;;23.77;97.04
74524;BME280;63004;44.694;10.422;2022-08-21T00:21:43;100059.00;;;23.75;97.22
74524;BME280;63004;44.694;10.422;2022-08-21T00:24:08;100059.78;;;23.75;97.13
74524;BME280;63004;44.694;10.422;2022-08-21T00:26:34;100064.16;;;23.76;97.36
74524;BME280;63004;44.694;10.422;2022-08-21T00:28:59;100061.41;;;23.76;97.17
74524;BME280;63004;44.694;10.422;2022-08-21T00:31:25;100049.63;;;23.76;97.27
74524;BME280;63004;44.694;10.422;2022-08-21T00:33:50;100058.66;;;23.76;97.49
74524;BME280;63004;44.694;10.422;2022-08-21T00:36:16;100046.06;;;23.75;97.06
74524;BME280;63004;44.694;10.422;2022-08-21T00:38:42;100046.88;;;23.76;97.37
74524;BME280;63004;44.694;10.422;2022-08-21T00:41:09;100046.88;;;23.76;97.18
74524;BME280;63004;44.694;10.422;2022-08-21T00:43:36;100052.38;;;23.76;97.54
74524;BME280;63004;44.694;10.422;2022-08-21T00:46:03;100054.78;;;23.77;97.15
74524;BME280;63004;44.694;10.422;2022-08-21T00:48:29;100051.25;;;23.77;97.28
74524;BME280;63004;44.694;10.422;2022-08-21T00:51:00;100048.50;;;23.77;97.51
74524;BME280;63004;44.694;10.422;2022-08-21T00:53:27;100053.19;;;23.76;97.21
74524;BME280;63004;44.694;10.422;2022-08-21T00:55:54;100044.94;;;23.76;97.36
74524;BME280;63004;44.694;10.422;2022-08-21T00:58:20;100048.81;;;23.75;97.51
74524;BME280;63004;44.694;10.422;2022-08-21T01:00:49;100047.69;;;23.76;97.19
74524;BME280;63004;44.694;10.422;2022-08-21T01:03:19;100041.41;;;23.76;97.36
74524;BME280;63004;44.694;10.422;2022-08-21T01:05:45;100046.06;;;23.75;97.33
74524;BME280;63004;44.694;10.422;2022-08-21T01:08:11;100049.63;;;23.76;97.29
74524;BME280;63004;44.694;10.422;2022-08-21T01:10:39;100049.63;;;23.76;97.31
74524;BME280;63004;44.694;10.422;2022-08-21T01:13:07;100053.19;;;23.76;97.43
74524;BME280;63004;44.694;10.422;2022-08-21T01:15:38;100055.94;;;23.76;97.33
74524;BME280;63004;44.694;10.422;2022-08-21T01:18:06;100050.44;;;23.76;97.30
74524;BME280;63004;44.694;10.422;2022-08-21T01:20:32;100048.50;;;23.77;97.42
74524;BME280;63004;44.694;10.422;2022-08-21T01:23:01;100054.00;;;23.77;97.26
74524;BME280;63004;44.694;10.422;2022-08-21T01:25:26;100055.94;;;23.76;97.33
74524;BME280;63004;44.694;10.422;2022-08-21T01:27:52;100045.75;;;23.77;97.15
74524;BME280;63004;44.694;10.422;2022-08-21T01:30:22;100042.22;;;23.76;97.35
74524;BME280;63004;44.694;10.422;2022-08-21T01:32:49;100044.94;;;23.76;97.28
74524;BME280;63004;44.694;10.422;2022-08-21T01:35:17;100041.06;;;23.77;97.26
74524;BME280;63004;44.694;10.422;2022-08-21T01:37:44;100042.22;;;23.76;97.15
74524;BME280;63004;44.694;10.422;2022-08-21T01:40:10;100035.59;;;23.77;97.26
74524;BME280;63004;44.694;10.422;2022-08-21T01:42:39;100039.94;;;23.78;97.35
74524;BME280;63004;44.694;10.422;2022-08-21T01:45:05;100041.06;;;23.77;97.48
74524;BME280;63004;44.694;10.422;2022-08-21T01:47:31;100044.63;;;23.78;97.35
74524;BME280;63004;44.694;10.422;2022-08-21T01:49:58;100039.47;;;23.76;97.23
74524;BME280;63004;44.694;10.422;2022-08-21T01:52:23;100032.34;;;23.75;97.57
74524;BME280;63004;44.694;10.422;2022-08-21T01:54:49;100029.28;;;23.77;97.39
74524;BME280;63004;44.694;10.422;2022-08-21T01:57:14;100013.97;;;23.76;97.49
74524;BME280;63004;44.694;10.422;2022-08-21T01:59:40;100032.03;;;23.77;97.61
74524;BME280;63004;44.694;10.422;2022-08-21T02:02:06;100017.50;;;23.76;97.39
74524;BME280;63004;44.694;10.422;2022-08-21T02:04:32;100020.25;;;23.76;97.51
74524;BME280;63004;44.694;10.422;2022-08-21T02:06:59;100015.56;;;23.77;97.66
74524;BME280;63004;44.694;10.422;2022-08-21T02:09:25;100019.13;;;23.77;97.57
74524;BME280;63004;44.694;10.422;2022-08-21T02:11:51;100019.13;;;23.77;97.56
74524;BME280;63004;44.694;10.422;2022-08-21T02:14:17;100016.38;;;23.77;97.67
74524;BME280;63004;44.694;10.422;2022-08-21T02:16:44;100011.22;;;23.76;97.31
74524;BME280;63004;44.694;10.422;2022-08-21T02:19:10;100014.44;;;23.78;97.50
74524;BME280;63004;44.694;10.422;2022-08-21T02:21:35;100004.59;;;23.77;97.45
74524;BME280;63004;44.694;10.422;2022-08-21T02:24:01;100007.34;;;23.77;97.63
74524;BME280;63004;44.694;10.422;2022-08-21T02:26:26;100003.00;;;23.76;97.59
74524;BME280;63004;44.694;10.422;2022-08-21T02:28:52;100016.06;;;23.79;97.68
74524;BME280;63004;44.694;10.422;2022-08-21T02:31:18;100015.25;;;23.78;97.63
74524;BME280;63004;44.694;10.422;2022-08-21T02:33:43;100010.91;;;23.77;97.42
74524;BME280;63004;44.694;10.422;2022-08-21T02:36:10;100015.56;;;23.77;97.33
74524;BME280;63004;44.694;10.422;2022-08-21T02:38:38;100019.94;;;23.78;97.27
74524;BME280;63004;44.694;10.422;2022-08-21T02:41:05;100014.78;;;23.76;97.40
74524;BME280;63004;44.694;10.422;2022-08-21T02:43:31;100010.09;;;23.77;97.71
74524;BME280;63004;44.694;10.422;2022-08-21T02:45:57;100017.19;;;23.78;97.76
74524;BME280;63004;44.694;10.422;2022-08-21T02:48:25;100009.28;;;23.76;97.76
74524;BME280;63004;44.694;10.422;2022-08-21T02:50:54;100008.47;;;23.76;97.35
74524;BME280;63004;44.694;10.422;2022-08-21T02:53:20;100008.16;;;23.77;97.45
74524;BME280;63004;44.694;10.422;2022-08-21T02:55:50;100000.25;;;23.76;97.56
74524;BME280;63004;44.694;10.422;2022-08-21T02:58:19;100003.47;;;23.78;97.43
74524;BME280;63004;44.694;10.422;2022-08-21T03:00:45;100001.84;;;23.77;97.80
74524;BME280;63004;44.694;10.422;2022-08-21T03:03:10;100005.41;;;23.77;97.42
74524;BME280;63004;44.694;10.422;2022-08-21T03:05:37;100003.78;;;23.76;97.61
74524;BME280;63004;44.694;10.422;2022-08-21T03:08:05;99992.81;;;23.76;97.64
74524;BME280;63004;44.694;10.422;2022-08-21T03:10:35;100003.00;;;23.76;97.54
74524;BME280;63004;44.694;10.422;2022-08-21T03:13:00;100008.16;;;23.77;97.76
74524;BME280;63004;44.694;10.422;2022-08-21T03:15:28;100000.72;;;23.78;97.65
74524;BME280;63004;44.694;10.422;2022-08-21T03:17:54;99998.31;;;23.76;97.32
74524;BME280;63004;44.694;10.422;2022-08-21T03:20:22;99990.06;;;23.76;97.28
74524;BME280;63004;44.694;10.422;2022-08-21T03:22:49;99999.13;;;23.77;97.68
74524;BME280;63004;44.694;10.422;2022-08-21T03:25:15;99994.75;;;23.76;97.38
74524;BME280;63004;44.694;10.422;2022-08-21T03:27:40;100003.00;;;23.76;97.72
74524;BME280;63004;44.694;10.422;2022-08-21T03:30:07;99995.56;;;23.76;97.54
74524;BME280;63004;44.694;10.422;2022-08-21T03:32:33;100003.78;;;23.76;97.30
74524;BME280;63004;44.694;10.422;2022-08-21T03:34:59;100002.66;;;23.77;97.55
74524;BME280;63004;44.694;10.422;2022-08-21T03:37:25;100002.66;;;23.77;97.44
74524;BME280;63004;44.694;10.422;2022-08-21T03:39:51;100003.78;;;23.76;97.37
74524;BME280;63004;44.694;10.422;2022-08-21T03:42:16;99991.69;;;23.77;97.55
74524;BME280;63004;44.694;10.422;2022-08-21T03:44:42;99995.56;;;23.76;97.79
74524;BME280;63004;44.694;10.422;2022-08-21T03:47:08;99990.06;;;23.76;97.70
74524;BME280;63004;44.694;10.422;2022-08-21T03:49:34;99986.53;;;23.76;97.67
74524;BME280;63004;44.694;10.422;2022-08-21T03:52:00;100002.66;;;23.77;97.62
74524;BME280;63004;44.694;10.422;2022-08-21T03:54:26;99990.06;;;23.76;97.59
74524;BME280;63004;44.694;10.422;2022-08-21T03:56:51;100004.59;;;23.77;97.86
74524;BME280;63004;44.694;10.422;2022-08-21T03:59:17;99997.19;;;23.77;97.82
74524;BME280;63004;44.694;10.422;2022-08-21T04:01:57;99998.31;;;23.76;97.95
74524;BME280;63004;44.694;10.422;2022-08-21T04:04:25;99999.13;;;23.77;97.58
74524;BME280;63004;44.694;10.422;2022-08-21T04:06:51;100000.25;;;23.76;97.87
74524;BME280;63004;44.694;10.422;2022-08-21T04:09:17;99997.50;;;23.76;98.06
74524;BME280;63004;44.694;10.422;2022-08-21T04:11:43;100002.19;;;23.75;97.81
74524;BME280;63004;44.694;10.422;2022-08-21T04:14:10;100003.00;;;23.76;97.50
74524;BME280;63004;44.694;10.422;2022-08-21T04:16:35;99996.69;;;23.75;97.64
74524;BME280;63004;44.694;10.422;2022-08-21T04:19:01;100003.00;;;23.76;98.04
74524;BME280;63004;44.694;10.422;2022-08-21T04:21:26;100004.94;;;23.75;98.08
74524;BME280;63004;44.694;10.422;2022-08-21T04:23:54;100013.97;;;23.76;98.10
74524;BME280;63004;44.694;10.422;2022-08-21T04:26:19;100015.09;;;23.75;98.12
74524;BME280;63004;44.694;10.422;2022-08-21T04:28:45;100010.41;;;23.75;98.13
74524;BME280;63004;44.694;10.422;2022-08-21T04:31:10;100015.56;;;23.77;97.82
74524;BME280;63004;44.694;10.422;2022-08-21T04:33:36;100015.09;;;23.75;97.56
74524;BME280;63004;44.694;10.422;2022-08-21T04:36:02;100012.34;;;23.75;97.78
74524;BME280;63004;44.694;10.422;2022-08-21T04:38:27;100018.63;;;23.75;98.08
74524;BME280;63004;44.694;10.422;2022-08-21T04:40:53;100015.09;;;23.75;97.93
74524;BME280;63004;44.694;10.422;2022-08-21T04:43:19;100023.31;;;23.75;97.76
74524;BME280;63004;44.694;10.422;2022-08-21T04:45:48;100020.59;;;23.75;97.92
74524;BME280;63004;44.694;10.422;2022-08-21T04:48:16;100024.13;;;23.75;97.66
74524;BME280;63004;44.694;10.422;2022-08-21T04:50:50;100026.06;;;23.75;98.05
74524;BME280;63004;44.694;10.422;2022-08-21T04:53:37;100028.00;;;23.74;97.72
74524;BME280;63004;44.694;10.422;2022-08-21T04:56:08;100040.59;;;23.75;98.08
74524;BME280;63004;44.694;10.422;2022-08-21T04:58:37;100032.34;;;23.75;97.79
74524;BME280;63004;44.694;10.422;2022-08-21T05:01:04;100033.50;;;23.74;97.95
74524;BME280;63004;44.694;10.422;2022-08-21T05:03:33;100036.22;;;23.74;97.96
74524;BME280;63004;44.694;10.422;2022-08-21T05:05:59;100041.72;;;23.74;97.96
74524;BME280;63004;44.694;10.422;2022-08-21T05:08:26;100037.84;;;23.75;97.93
74524;BME280;63004;44.694;10.422;2022-08-21T05:10:53;100034.28;;;23.75;97.79
74524;BME280;63004;44.694;10.422;2022-08-21T05:13:19;100040.91;;;23.74;97.96
74524;BME280;63004;44.694;10.422;2022-08-21T05:15:45;100039.78;;;23.75;97.57
74524;BME280;63004;44.694;10.422;2022-08-21T05:18:11;100041.72;;;23.74;97.73
74524;BME280;63004;44.694;10.422;2022-08-21T05:20:36;100046.06;;;23.75;98.04
74524;BME280;63004;44.694;10.422;2022-08-21T05:23:11;100045.59;;;23.73;97.75
74524;BME280;63004;44.694;10.422;2022-08-21T05:25:37;100046.41;;;23.74;97.87
74524;BME280;63004;44.694;10.422;2022-08-21T05:28:03;100049.94;;;23.74;97.90
74524;BME280;63004;44.694;10.422;2022-08-21T05:30:29;100052.69;;;23.74;97.85
74524;BME280;63004;44.694;10.422;2022-08-21T05:32:59;100054.63;;;23.74;97.94
74524;BME280;63004;44.694;10.422;2022-08-21T05:35:26;100053.50;;;23.75;98.13
74524;BME280;63004;44.694;10.422;2022-08-21T05:37:51;100054.63;;;23.74;97.79
74524;BME280;63004;44.694;10.422;2022-08-21T05:40:17;100053.81;;;23.73;98.09
74524;BME280;63004;44.694;10.422;2022-08-21T05:42:43;100048.34;;;23.73;98.08
74524;BME280;63004;44.694;10.422;2022-08-21T05:45:08;100054.63;;;23.74;98.12
74524;BME280;63004;44.694;10.422;2022-08-21T05:47:34;100051.06;;;23.73;97.65
74524;BME280;63004;44.694;10.422;2022-08-21T05:49:59;100049.94;;;23.74;97.87
74524;BME280;63004;44.694;10.422;2022-08-21T05:52:25;100049.16;;;23.74;97.66
74524;BME280;63004;44.694;10.422;2022-08-21T05:54:50;100045.59;;;23.73;98.18
74524;BME280;63004;44.694;10.422;2022-08-21T05:57:18;100044.78;;;23.73;98.16
74524;BME280;63004;44.694;10.422;2022-08-21T05:59:44;100054.63;;;23.74;97.90
74524;BME280;63004;44.694;10.422;2022-08-21T06:02:10;100048.34;;;23.73;97.98
74524;BME280;63004;44.694;10.422;2022-08-21T06:04:39;100057.38;;;23.74;97.86
74524;BME280;63004;44.694;10.422;2022-08-21T06:07:05;100057.38;;;23.74;98.07
74524;BME280;63004;44.694;10.422;2022-08-21T06:09:30;100060.13;;;23.74;97.60
74524;BME280;63004;44.694;10.422;2022-08-21T06:11:56;100061.25;;;23.73;97.91
74524;BME280;63004;44.694;10.422;2022-08-21T06:14:21;100062.06;;;23.73;97.68
74524;BME280;63004;44.694;10.422;2022-08-21T06:16:47;100053.81;;;23.73;98.03
74524;BME280;63004;44.694;10.422;2022-08-21T06:19:12;100057.69;;;23.72;97.64
74524;BME280;63004;44.694;10.422;2022-08-21T06:21:38;100060.94;;;23.74;97.26
74524;BME280;63004;44.694;10.422;2022-08-21T06:24:04;100060.13;;;23.74;97.14
74524;BME280;63004;44.694;10.422;2022-08-21T06:26:30;100054.63;;;23.74;97.29
74524;BME280;63004;44.694;10.422;2022-08-21T06:28:56;100062.84;;;23.74;97.25
74524;BME280;63004;44.694;10.422;2022-08-21T06:31:25;100048.34;;;23.73;97.54
74524;BME280;63004;44.694;10.422;2022-08-21T06:33:51;100062.06;;;23.73;97.29
74524;BME280;63004;44.694;10.422;2022-08-21T06:36:18;100059.31;;;23.73;97.18
74524;BME280;63004;44.694;10.422;2022-08-21T06:38:44;100061.25;;;23.73;97.51
74524;BME280;63004;44.694;10.422;2022-08-21T06:41:10;100062.06;;;23.73;97.60
74524;BME280;63004;44.694;10.422;2022-08-21T06:43:36;100061.25;;;23.73;97.24
74524;BME280;63004;44.694;10.422;2022-08-21T06:46:01;100057.38;;;23.74;97.62
74524;BME280;63004;44.694;10.422;2022-08-21T06:48:27;100058.19;;;23.74;97.08
74524;BME280;63004;44.694;10.422;2022-08-21T06:50:52;100053.00;;;23.73;97.04
74524;BME280;63004;44.694;10.422;2022-08-21T06:53:19;100050.28;;;23.73;97.50
74524;BME280;63004;44.694;10.422;2022-08-21T06:55:46;100053.00;;;23.73;96.83
74524;BME280;63004;44.694;10.422;2022-08-21T06:58:12;100059.31;;;23.73;97.40
74524;BME280;63004;44.694;10.422;2022-08-21T07:00:44;100069.47;;;23.73;97.05
74524;BME280;63004;44.694;10.422;2022-08-21T07:03:25;100060.44;;;23.72;97.23
74524;BME280;63004;44.694;10.422;2022-08-21T07:05:53;100066.56;;;23.78;94.25
74524;BME280;63004;44.694;10.422;2022-08-21T07:08:18;100067.38;;;23.78;96.33
74524;BME280;63004;44.694;10.422;2022-08-21T07:10:44;100062.22;;;23.77;95.41
74524;BME280;63004;44.694;10.422;2022-08-21T07:13:10;100066.91;;;23.76;95.30
74524;BME280;63004;44.694;10.422;2022-08-21T07:15:36;100067.72;;;23.77;96.35
74524;BME280;63004;44.694;10.422;2022-08-21T07:18:01;100067.22;;;23.75;96.89
74524;BME280;63004;44.694;10.422;2022-08-21T07:20:31;100065.44;;;23.79;96.82
74524;BME280;63004;44.694;10.422;2022-08-21T07:23:00;100066.91;;;23.76;96.73
74524;BME280;63004;44.694;10.422;2022-08-21T07:25:26;100064.97;;;23.77;96.86
74524;BME280;63004;44.694;10.422;2022-08-21T07:27:51;100066.41;;;23.74;96.60
74524;BME280;63004;44.694;10.422;2022-08-21T07:30:17;100070.78;;;23.75;96.99
74524;BME280;63004;44.694;10.422;2022-08-21T07:32:42;100071.91;;;23.74;97.06
74524;BME280;63004;44.694;10.422;2022-08-21T07:35:08;100070.78;;;23.75;96.64
74524;BME280;63004;44.694;10.422;2022-08-21T07:37:34;100074.00;;;23.77;96.55
74524;BME280;63004;44.694;10.422;2022-08-21T07:40:00;100072.38;;;23.76;97.17
74524;BME280;63004;44.694;10.422;2022-08-21T07:42:25;100079.81;;;23.76;96.93
74524;BME280;63004;44.694;10.422;2022-08-21T07:44:50;100082.88;;;23.74;97.17
74524;BME280;63004;44.694;10.422;2022-08-21T07:47:16;100082.22;;;23.77;97.01
74524;BME280;63004;44.694;10.422;2022-08-21T07:49:41;100089.97;;;23.75;96.91
74524;BME280;63004;44.694;10.422;2022-08-21T07:52:07;100089.16;;;23.75;97.09
74524;BME280;63004;44.694;10.422;2022-08-21T07:54:32;100075.44;;;23.75;97.02
74524;BME280;63004;44.694;10.422;2022-08-21T07:56:57;100069.16;;;23.74;97.07
74524;BME280;63004;44.694;10.422;2022-08-21T07:59:23;100059.31;;;23.73;97.15
74524;BME280;63004;44.694;10.422;2022-08-21T08:01:49;100060.13;;;23.74;97.48
74524;BME280;63004;44.694;10.422;2022-08-21T08:04:14;100063.66;;;23.74;96.91
74524;BME280;63004;44.694;10.422;2022-08-21T08:06:40;100065.59;;;23.74;96.92
74524;BME280;63004;44.694;10.422;2022-08-21T08:09:06;100070.78;;;23.75;97.21
74524;BME280;63004;44.694;10.422;2022-08-21T08:11:31;100059.78;;;23.75;96.98
74524;BME280;63004;44.694;10.422;2022-08-21T08:13:56;100068.03;;;23.75;97.28
74524;BME280;63004;44.694;10.422;2022-08-21T08:16:24;100052.69;;;23.74;97.08
74524;BME280;63004;44.694;10.422;2022-08-21T08:18:50;100050.75;;;23.75;97.39
74524;BME280;63004;44.694;10.422;2022-08-21T08:21:16;100057.06;;;23.75;97.21
74524;BME280;63004;44.694;10.422;2022-08-21T08:23:44;100054.31;;;23.75;97.21
74524;BME280;63004;44.694;10.422;2022-08-21T08:26:10;100048.00;;;23.75;97.03
74524;BME280;63004;44.694;10.422;2022-08-21T08:28:36;100051.56;;;23.75;97.25
74524;BME280;63004;44.694;10.422;2022-08-21T08:31:02;100043.34;;;23.75;97.05
74524;BME280;63004;44.694;10.422;2022-08-21T08:33:27;100043.34;;;23.75;97.24
74524;BME280;63004;44.694;10.422;2022-08-21T08:35:53;100036.22;;;23.74;97.32
74524;BME280;63004;44.694;10.422;2022-08-21T08:38:21;100040.59;;;23.75;97.32
74524;BME280;63004;44.694;10.422;2022-08-21T08:40:58;100031.56;;;23.75;97.17
74524;BME280;63004;44.694;10.422;2022-08-21T08:43:27;100032.03;;;23.77;96.99
74524;BME280;63004;44.694;10.422;2022-08-21T08:45:54;100031.56;;;23.75;97.54
74524;BME280;63004;44.694;10.422;2022-08-21T08:51:02;100031.22;;;23.76;97.19
74524;BME280;63004;44.694;10.422;2022-08-21T08:53:34;100031.56;;;23.75;97.09
74524;BME280;63004;44.694;10.422;2022-08-21T08:56:05;100029.63;;;23.75;97.15
74524;BME280;63004;44.694;10.422;2022-08-21T08:58:34;100030.44;;;23.76;97.20
74524;BME280;63004;44.694;10.422;2022-08-21T09:01:12;100023.31;;;23.75;97.06
74524;BME280;63004;44.694;10.422;2022-08-21T09:03:40;100020.59;;;23.75;97.54
74524;BME280;63004;44.694;10.422;2022-08-21T09:06:15;100023.31;;;23.75;97.54
74524;BME280;63004;44.694;10.422;2022-08-21T09:09:11;100023.31;;;23.75;97.66
74524;BME280;63004;44.694;10.422;2022-08-21T09:12:50;100026.56;;;23.77;97.34
74524;BME280;63004;44.694;10.422;2022-08-21T09:28:25;100006.06;;;23.74;97.60
74524;BME280;63004;44.694;10.422;2022-08-21T09:30:54;100000.56;;;23.74;97.34
74524;BME280;63004;44.694;10.422;2022-08-21T09:33:21;99999.44;;;23.75;97.80
74524;BME280;63004;44.694;10.422;2022-08-21T09:35:55;99995.56;;;23.76;97.61
74524;BME280;63004;44.694;10.422;2022-08-21T09:38:34;99995.88;;;23.75;97.51
74524;BME280;63004;44.694;10.422;2022-08-21T09:41:05;99989.59;;;23.74;97.69
74524;BME280;63004;44.694;10.422;2022-08-21T09:43:31;99988.47;;;23.75;97.43
74524;BME280;63004;44.694;10.422;2022-08-21T09:46:21;99984.91;;;23.75;97.41
74524;BME280;63004;44.694;10.422;2022-08-21T09:48:50;99976.69;;;23.75;97.61
74524;BME280;63004;44.694;10.422;2022-08-21T09:51:18;99985.72;;;23.75;97.46
74524;BME280;63004;44.694;10.422;2022-08-21T09:53:51;99982.16;;;23.75;97.62
74524;BME280;63004;44.694;10.422;2022-08-21T09:56:26;99984.09;;;23.74;97.87
74524;BME280;63004;44.694;10.422;2022-08-21T09:59:18;99983.13;;;23.79;97.66
74524;BME280;63004;44.694;10.422;2022-08-21T10:01:47;99985.06;;;23.78;97.60
74524;BME280;63004;44.694;10.422;2022-08-21T10:04:13;99984.28;;;23.78;97.42
74524;BME280;63004;44.694;10.422;2022-08-21T10:06:39;99989.28;;;23.76;97.48
74524;BME280;63004;44.694;10.422;2022-08-21T10:09:17;99988.47;;;23.75;97.31
74524;BME280;63004;44.694;10.422;2022-08-21T10:11:58;99988.94;;;23.77;98.12
74524;BME280;63004;44.694;10.422;2022-08-21T10:17:16;99988.94;;;23.77;97.40
74524;BME280;63004;44.694;10.422;2022-08-21T10:25:21;99981.84;;;23.76;97.70
74524;BME280;63004;44.694;10.422;2022-08-21T10:35:59;99974.75;;;23.75;97.62
74524;BME280;63004;44.694;10.422;2022-08-21T10:39:03;99980.22;;;23.75;97.98
74524;BME280;63004;44.694;10.422;2022-08-21T10:52:36;99964.91;;;23.74;97.92
74524;BME280;63004;44.694;10.422;2022-08-21T10:58:04;99963.28;;;23.73;97.92
74524;BME280;63004;44.694;10.422;2022-08-21T11:00:49;99957.81;;;23.73;98.08
74524;BME280;63004;44.694;10.422;2022-08-21T11:03:45;99963.28;;;23.73;98.00
74524;BME280;63004;44.694;10.422;2022-08-21T11:06:29;99961.34;;;23.74;97.94
74524;BME280;63004;44.694;10.422;2022-08-21T11:09:13;99955.06;;;23.73;97.93
74524;BME280;63004;44.694;10.422;2022-08-21T11:15:00;99945.22;;;23.72;97.85
74524;BME280;63004;44.694;10.422;2022-08-21T11:17:34;99945.22;;;23.72;97.97
74524;BME280;63004;44.694;10.422;2022-08-21T11:20:08;99947.97;;;23.72;97.86
74524;BME280;63004;44.694;10.422;2022-08-21T11:25:06;99945.22;;;23.72;97.88
74524;BME280;63004;44.694;10.422;2022-08-21T11:27:41;99936.97;;;23.72;97.98
74524;BME280;63004;44.694;10.422;2022-08-21T11:30:08;99931.50;;;23.72;97.82
74524;BME280;63004;44.694;10.422;2022-08-21T11:32:58;99936.97;;;23.72;98.09
74524;BME280;63004;44.694;10.422;2022-08-21T11:35:38;99940.53;;;23.73;97.65
74524;BME280;63004;44.694;10.422;2022-08-21T11:38:15;99933.44;;;23.72;98.09
74524;BME280;63004;44.694;10.422;2022-08-21T11:49:38;99928.75;;;23.72;98.01
74524;BME280;63004;44.694;10.422;2022-08-21T11:52:41;99912.28;;;23.72;97.72
74524;BME280;63004;44.694;10.422;2022-08-21T12:00:28;99915.03;;;23.72;97.64
74524;BME280;63004;44.694;10.422;2022-08-21T12:03:05;99910.69;;;23.71;97.96
74524;BME280;63004;44.694;10.422;2022-08-21T12:05:37;99913.44;;;23.71;98.08
74524;BME280;63004;44.694;10.422;2022-08-21T12:10:46;99904.38;;;23.71;98.10
74524;BME280;63004;44.694;10.422;2022-08-21T12:13:24;99907.94;;;23.71;97.68
74524;BME280;63004;44.694;10.422;2022-08-21T12:15:50;99902.44;;;23.71;97.99
74524;BME280;63004;44.694;10.422;2022-08-21T12:18:30;99896.97;;;23.71;97.83
74524;BME280;63004;44.694;10.422;2022-08-21T12:21:03;99893.41;;;23.71;97.84
74524;BME280;63004;44.694;10.422;2022-08-21T12:23:44;99886.00;;;23.71;98.04
74524;BME280;63004;44.694;10.422;2022-08-21T12:28:38;99887.94;;;23.71;98.25
74524;BME280;63004;44.694;10.422;2022-08-21T12:31:04;99879.69;;;23.71;98.04
74524;BME280;63004;44.694;10.422;2022-08-21T12:33:37;99874.22;;;23.71;98.04
74524;BME280;63004;44.694;10.422;2022-08-21T12:36:12;99873.41;;;23.70;97.86
74524;BME280;63004;44.694;10.422;2022-08-21T12:38:49;99864.38;;;23.70;97.93
74524;BME280;63004;44.694;10.422;2022-08-21T12:41:20;99866.00;;;23.71;98.04
74524;BME280;63004;44.694;10.422;2022-08-21T12:43:53;99856.94;;;23.70;97.94
74524;BME280;63004;44.694;10.422;2022-08-21T12:46:33;99850.66;;;23.70;98.18
74524;BME280;63004;44.694;10.422;2022-08-21T12:49:03;99856.94;;;23.70;97.88
74524;BME280;63004;44.694;10.422;2022-08-21T12:51:55;99844.03;;;23.71;97.82
74524;BME280;63004;44.694;10.422;2022-08-21T12:54:26;99850.34;;;23.71;98.15
74524;BME280;63004;44.694;10.422;2022-08-21T12:56:58;99840.50;;;23.70;97.86
74524;BME280;63004;44.694;10.422;2022-08-21T12:59:24;99849.19;;;23.72;97.92
74524;BME280;63004;44.694;10.422;2022-08-21T13:01:51;99842.09;;;23.71;97.67
74524;BME280;63004;44.694;10.422;2022-08-21T13:04:20;99843.72;;;23.72;97.90
74524;BME280;63004;44.694;10.422;2022-08-21T13:06:49;99842.91;;;23.72;98.12
74524;BME280;63004;44.694;10.422;2022-08-21T13:09:18;99840.16;;;23.72;98.25
74524;BME280;63004;44.694;10.422;2022-08-21T13:11:47;99840.97;;;23.72;97.93
74524;BME280;63004;44.694;10.422;2022-08-21T13:16:45;99835.47;;;23.72;97.66
74524;BME280;63004;44.694;10.422;2022-08-21T13:19:11;99832.75;;;23.72;97.82
74524;BME280;63004;44.694;10.422;2022-08-21T13:21:43;99826.44;;;23.72;98.14
74524;BME280;63004;44.694;10.422;2022-08-21T13:24:13;99827.25;;;23.72;98.03
74524;BME280;63004;44.694;10.422;2022-08-21T13:26:39;99821.78;;;23.72;97.85
74524;BME280;63004;44.694;10.422;2022-08-21T13:29:08;99816.28;;;23.72;98.02
74524;BME280;63004;44.694;10.422;2022-08-21T13:31:37;99817.09;;;23.73;98.16
74524;BME280;63004;44.694;10.422;2022-08-21T13:34:05;99812.41;;;23.73;97.82
74524;BME280;63004;44.694;10.422;2022-08-21T13:36:35;99814.34;;;23.73;97.88
74524;BME280;63004;44.694;10.422;2022-08-21T13:39:04;99807.72;;;23.74;98.01
74524;BME280;63004;44.694;10.422;2022-08-21T13:41:35;99808.84;;;23.73;97.98
74524;BME280;63004;44.694;10.422;2022-08-21T13:44:14;99803.38;;;23.73;98.15
74524;BME280;63004;44.694;10.422;2022-08-21T13:46:40;99803.38;;;23.73;97.77
74524;BME280;63004;44.694;10.422;2022-08-21T13:49:07;99803.03;;;23.74;97.81
74524;BME280;63004;44.694;10.422;2022-08-21T13:51:35;99799.50;;;23.74;98.23
74524;BME280;63004;44.694;10.422;2022-08-21T13:54:02;99804.19;;;23.73;97.93
74524;BME280;63004;44.694;10.422;2022-08-21T13:56:46;99794.00;;;23.74;98.17
74524;BME280;63004;44.694;10.422;2022-08-21T13:59:12;99790.47;;;23.73;98.22
74524;BME280;63004;44.694;10.422;2022-08-21T14:02:12;99796.75;;;23.74;97.91
74524;BME280;63004;44.694;10.422;2022-08-21T14:04:50;99783.03;;;23.74;97.96
74524;BME280;63004;44.694;10.422;2022-08-21T14:07:20;99784.97;;;23.73;97.75